Time;durP1;ratioP1;P1;durP2;ratioP2;P2;SDS_P1;SDS_P2;PMS_P1;PMS_P2;Temp;Humidity;BMP_temperature;BMP_pressure;BME280_temperature;BME280_humidity;BME280_pressure;Samples;Min_cycle;Max_cycle;Signal;HPM_P1;HPM_P2
2024/01/07 00:02:08;;;;;;;;;;;;;;;12.01;92.85;93580.69;5135262;27;929;-61
2024/01/07 00:04:42;;;;;;;;;;;;;;;11.98;93.18;93570.38;5135158;27;1986;-61
2024/01/07 00:07:16;;;;;;;;;;;;;;;11.90;94.63;93575.97;5135031;27;948;-62
2024/01/07 00:09:50;;;;;;;;;;;;;;;11.72;96.11;93568.50;5135029;27;1004;-62
2024/01/07 00:12:25;;;;;;;;;;;;;;;11.62;97.39;93560.09;5134679;27;1002;-62
2024/01/07 00:14:59;;;;;;;;;;;;;;;11.55;98.29;93569.94;5134805;27;1019;-61
2024/01/07 00:17:33;;;;;;;;;;;;;;;11.34;97.84;93577.13;5134724;27;969;-62
2024/01/07 00:20:08;;;;;;;;;;;;;;;11.22;98.78;93578.78;5134819;27;865;-62
2024/01/07 00:22:43;;;;;;;;;;;;;;;11.20;99.35;93562.94;5134640;27;990;-62
2024/01/07 00:25:15;;;;;;;;;;;;;;;11.24;99.20;93553.47;5134485;27;1921;-62
2024/01/07 00:27:51;;;;;;;;;;;;;;;11.39;98.75;93544.44;5134805;27;941;-62
2024/01/07 00:30:25;;;;;;;;;;;;;;;11.37;99.21;93547.31;5133892;27;968;-61
2024/01/07 00:32:59;;;;;;;;;;;;;;;11.24;99.86;93540.09;5134555;27;1096;-62
2024/01/07 00:35:34;;;;;;;;;;;;;;;11.23;100.00;93543.81;5134353;27;1003;-61
2024/01/07 00:38:08;;;;;;;;;;;;;;;11.28;98.32;93538.66;5134747;27;898;-61
2024/01/07 00:40:40;;;;;;;;;;;;;;;11.40;98.13;93522.84;5134623;27;1439;-61
2024/01/07 00:43:14;;;;;;;;;;;;;;;11.33;97.86;93519.31;5134082;27;1909;-61
2024/01/07 00:45:48;;;;;;;;;;;;;;;11.37;98.08;93509.84;5134356;27;933;-62
2024/01/07 00:48:23;;;;;;;;;;;;;;;11.41;97.71;93500.38;5134566;27;937;-62
2024/01/07 00:50:57;;;;;;;;;;;;;;;11.45;95.32;93496.25;5134303;27;932;-62
2024/01/07 00:53:31;;;;;;;;;;;;;;;11.67;91.83;93482.66;5134482;28;1259;-61
2024/01/07 00:56:07;;;;;;;;;;;;;;;11.82;91.39;93482.41;5134268;28;991;-62
2024/01/07 00:58:41;;;;;;;;;;;;;;;11.95;90.61;93478.91;5134546;28;926;-61
2024/01/07 01:01:15;;;;;;;;;;;;;;;11.89;91.21;93468.03;5134140;28;1000;-61
2024/01/07 01:03:50;;;;;;;;;;;;;;;11.88;90.81;93452.94;5134400;28;1909;-62
2024/01/07 01:06:24;;;;;;;;;;;;;;;11.80;90.35;93449.66;5134118;28;1033;-62
2024/01/07 01:08:58;;;;;;;;;;;;;;;11.88;89.40;93438.75;5134113;28;1016;-62
2024/01/07 01:11:33;;;;;;;;;;;;;;;11.97;88.74;93431.31;5134020;28;976;-62
2024/01/07 01:14:07;;;;;;;;;;;;;;;11.99;88.88;93429.25;5134152;28;1004;-62
2024/01/07 01:16:41;;;;;;;;;;;;;;;11.94;88.21;93413.81;5134047;28;983;-62
2024/01/07 01:19:16;;;;;;;;;;;;;;;11.78;89.10;93415.09;5134251;28;1008;-61
2024/01/07 01:21:51;;;;;;;;;;;;;;;11.60;89.48;93410.38;5134036;28;933;-62
2024/01/07 01:24:25;;;;;;;;;;;;;;;11.35;89.84;93404.06;5117010;28;1906;-61
2024/01/07 01:26:59;;;;;;;;;;;;;;;11.31;90.51;93409.84;5134070;28;929;-62
2024/01/07 01:29:34;;;;;;;;;;;;;;;11.28;90.47;93394.19;5133830;28;863;-61
2024/01/07 01:32:08;;;;;;;;;;;;;;;11.30;91.62;93391.31;5133841;28;996;-62
2024/01/07 01:34:42;;;;;;;;;;;;;;;11.22;90.88;93389.69;5134153;28;922;-62
2024/01/07 01:37:17;;;;;;;;;;;;;;;11.09;91.09;93385.16;5134106;28;933;-62
2024/01/07 01:39:49;;;;;;;;;;;;;;;10.92;92.36;93389.28;5134020;28;1360;-61
2024/01/07 01:42:23;;;;;;;;;;;;;;;10.90;92.95;93386.00;5134607;27;1237;-61
2024/01/07 01:45:01;;;;;;;;;;;;;;;10.92;92.66;93386.63;5137983;27;1906;-61
2024/01/07 01:47:34;;;;;;;;;;;;;;;10.93;91.60;93385.59;5137774;27;1523;-61
2024/01/07 01:50:08;;;;;;;;;;;;;;;10.94;90.66;93387.22;5137688;27;926;-62
2024/01/07 01:52:44;;;;;;;;;;;;;;;10.98;91.65;93401.00;5137839;27;1150;-62
2024/01/07 01:55:19;;;;;;;;;;;;;;;10.93;92.41;93404.31;5137745;27;935;-62
2024/01/07 01:57:54;;;;;;;;;;;;;;;10.83;94.74;93403.88;5137479;27;979;-61
2024/01/07 02:00:29;;;;;;;;;;;;;;;10.84;94.73;93402.88;5137618;27;924;-62
2024/01/07 02:03:03;;;;;;;;;;;;;;;10.77;95.19;93402.03;5136935;27;960;-63
2024/01/07 02:05:37;;;;;;;;;;;;;;;10.69;95.66;93411.91;5137500;27;1983;-62
2024/01/07 02:08:13;;;;;;;;;;;;;;;10.57;98.72;93428.72;5137303;27;1015;-61
2024/01/07 02:10:47;;;;;;;;;;;;;;;10.47;100.00;93440.66;5137385;27;972;-62
2024/01/07 02:13:21;;;;;;;;;;;;;;;10.48;100.00;93470.88;5137277;27;1441;-62
2024/01/07 02:15:55;;;;;;;;;;;;;;;10.54;96.14;93478.06;5137400;27;1008;-62
2024/01/07 02:18:29;;;;;;;;;;;;;;;10.58;94.32;93486.50;5136998;27;978;-62
2024/01/07 02:21:04;;;;;;;;;;;;;;;10.47;92.01;93483.41;5137202;27;925;-62
2024/01/07 02:23:36;;;;;;;;;;;;;;;10.33;93.94;93492.41;5136985;27;1968;-62
2024/01/07 02:26:10;;;;;;;;;;;;;;;10.02;96.24;93500.88;5137285;27;885;-61
2024/01/07 02:28:44;;;;;;;;;;;;;;;9.97;94.02;93504.13;5136674;27;1518;-60
2024/01/07 02:31:18;;;;;;;;;;;;;;;9.95;93.98;93498.97;5136824;27;976;-61
2024/01/07 02:33:53;;;;;;;;;;;;;;;9.79;94.82;93485.97;5136953;27;967;-62
2024/01/07 02:36:27;;;;;;;;;;;;;;;9.71;95.37;93483.44;5136630;27;979;-62
2024/01/07 02:39:01;;;;;;;;;;;;;;;9.47;98.43;93477.56;5136633;27;999;-61
2024/01/07 02:41:35;;;;;;;;;;;;;;;9.28;99.87;93464.91;5136853;27;947;-61
2024/01/07 02:44:10;;;;;;;;;;;;;;;9.10;100.00;93444.06;5136405;27;1986;-61
2024/01/07 02:46:46;;;;;;;;;;;;;;;8.99;100.00;93448.91;5136661;27;941;-62
2024/01/07 02:49:18;;;;;;;;;;;;;;;8.94;100.00;93446.00;5136919;27;1016;-62
2024/01/07 02:51:52;;;;;;;;;;;;;;;8.87;100.00;93458.44;5136301;27;1145;-62
2024/01/07 02:54:26;;;;;;;;;;;;;;;8.84;100.00;93456.16;5136074;27;948;-62
2024/01/07 02:56:59;;;;;;;;;;;;;;;8.80;100.00;93444.22;5136658;27;913;-61
2024/01/07 02:59:34;;;;;;;;;;;;;;;8.63;100.00;93448.97;5136248;27;937;-62
2024/01/07 03:02:08;;;;;;;;;;;;;;;8.40;100.00;93444.66;5136314;27;999;-62
2024/01/07 03:04:43;;;;;;;;;;;;;;;8.37;100.00;93434.38;5136333;27;1980;-61
2024/01/07 03:07:17;;;;;;;;;;;;;;;8.33;100.00;93432.31;5136224;27;1007;-62
2024/01/07 03:09:51;;;;;;;;;;;;;;;8.32;100.00;93431.44;5136141;27;1024;-61
2024/01/07 03:12:25;;;;;;;;;;;;;;;8.28;100.00;93430.19;5135953;27;932;-62
2024/01/07 03:15:00;;;;;;;;;;;;;;;8.24;100.00;93410.28;5136291;27;915;-61
2024/01/07 03:17:34;;;;;;;;;;;;;;;8.24;100.00;93407.63;5135877;27;1126;-61
2024/01/07 03:20:09;;;;;;;;;;;;;;;8.31;100.00;93407.69;5119240;27;979;-61
2024/01/07 03:22:43;;;;;;;;;;;;;;;8.44;100.00;93407.84;5135892;27;942;-61
2024/01/07 03:25:17;;;;;;;;;;;;;;;8.50;100.00;93411.56;5135862;27;1977;-63
2024/01/07 03:27:52;;;;;;;;;;;;;;;8.55;100.00;93414.50;5136082;27;924;-62
2024/01/07 03:30:24;;;;;;;;;;;;;;;8.69;100.00;93418.94;5135891;27;1352;-61
2024/01/07 03:32:58;;;;;;;;;;;;;;;8.65;100.00;93424.81;5135968;27;1083;-61
2024/01/07 03:35:30;;;;;;;;;;;;;;;8.74;100.00;93419.16;5135698;27;1484;-61
2024/01/07 03:38:03;;;;;;;;;;;;;;;8.72;100.00;93415.06;5135384;27;1675;-61
2024/01/07 03:40:37;;;;;;;;;;;;;;;8.74;100.00;93418.34;5135684;27;932;-61
2024/01/07 03:43:11;;;;;;;;;;;;;;;8.75;100.00;93420.81;5135287;27;1092;-62
2024/01/07 03:45:44;;;;;;;;;;;;;;;8.78;100.00;93409.78;5135401;27;921;-62
2024/01/07 03:48:18;;;;;;;;;;;;;;;8.72;100.00;93409.72;5135583;27;996;-61
2024/01/07 03:50:53;;;;;;;;;;;;;;;8.65;100.00;93407.03;5135618;27;966;-63
2024/01/07 03:53:26;;;;;;;;;;;;;;;8.68;100.00;93398.63;5134931;27;1679;-62
2024/01/07 03:56:00;;;;;;;;;;;;;;;8.53;100.00;93395.22;5135481;27;920;-61
2024/01/07 03:58:35;;;;;;;;;;;;;;;8.47;100.00;93396.81;5135376;27;948;-62
2024/01/07 04:01:09;;;;;;;;;;;;;;;8.43;100.00;93397.41;5135060;27;1003;-63
2024/01/07 04:03:43;;;;;;;;;;;;;;;8.28;100.00;93405.41;5134991;27;1984;-60
2024/01/07 04:06:17;;;;;;;;;;;;;;;8.33;100.00;93411.81;5134170;27;924;-61
2024/01/07 04:08:52;;;;;;;;;;;;;;;8.24;100.00;93406.81;5134856;27;929;-62
2024/01/07 04:11:26;;;;;;;;;;;;;;;8.26;100.00;93408.25;5135052;27;1585;-63
2024/01/07 04:14:00;;;;;;;;;;;;;;;8.13;100.00;93394.81;5135126;27;996;-62
2024/01/07 04:16:34;;;;;;;;;;;;;;;7.95;100.00;93384.59;5134944;27;1616;-60
2024/01/07 04:19:08;;;;;;;;;;;;;;;7.91;100.00;93392.13;5134613;27;992;-60
2024/01/07 04:21:45;;;;;;;;;;;;;;;7.82;100.00;93390.59;5135017;27;928;-60
2024/01/07 04:24:19;;;;;;;;;;;;;;;7.94;100.00;93381.09;5134563;27;1910;-60
2024/01/07 04:26:53;;;;;;;;;;;;;;;8.14;100.00;93394.63;5134824;27;976;-60
2024/01/07 04:29:27;;;;;;;;;;;;;;;8.25;100.00;93403.94;5134803;27;945;-59
2024/01/07 04:32:01;;;;;;;;;;;;;;;8.12;100.00;93404.66;5134511;27;1024;-59
2024/01/07 04:34:36;;;;;;;;;;;;;;;8.08;100.00;93399.88;5134487;27;1003;-61
2024/01/07 04:37:10;;;;;;;;;;;;;;;8.08;100.00;93399.88;5134638;27;968;-60
2024/01/07 04:39:44;;;;;;;;;;;;;;;8.03;100.00;93397.78;5134371;27;1027;-60
2024/01/07 04:42:18;;;;;;;;;;;;;;;8.14;100.00;93401.78;5134439;27;1242;-60
2024/01/07 04:44:50;;;;;;;;;;;;;;;8.20;100.00;93401.03;5134124;27;1990;-60
2024/01/07 04:47:25;;;;;;;;;;;;;;;8.18;100.00;93406.53;5134336;27;1546;-60
2024/01/07 04:49:59;;;;;;;;;;;;;;;8.10;100.00;93406.66;5134585;27;943;-60
2024/01/07 04:52:34;;;;;;;;;;;;;;;7.75;100.00;93414.44;5134082;27;1271;-60
2024/01/07 04:55:07;;;;;;;;;;;;;;;7.46;100.00;93404.69;5134411;27;1587;-60
2024/01/07 04:57:41;;;;;;;;;;;;;;;7.35;100.00;93415.78;5134603;28;996;-60
2024/01/07 05:00:15;;;;;;;;;;;;;;;7.42;100.00;93404.22;5134338;28;1232;-60
2024/01/07 05:02:49;;;;;;;;;;;;;;;7.28;100.00;93409.53;5134547;28;1007;-60
2024/01/07 05:05:23;;;;;;;;;;;;;;;7.45;100.00;93418.97;5134269;28;1980;-60
2024/01/07 05:08:00;;;;;;;;;;;;;;;7.36;100.00;93412.94;5134739;28;921;-60
2024/01/07 05:10:34;;;;;;;;;;;;;;;7.51;100.00;93401.47;5134089;28;1003;-60
2024/01/07 05:13:09;;;;;;;;;;;;;;;7.49;100.00;93393.66;5134081;28;848;-61
2024/01/07 05:15:40;;;;;;;;;;;;;;;7.48;100.00;93384.06;5134246;27;2281;-61
2024/01/07 05:18:15;;;;;;;;;;;;;;;7.64;100.00;93383.00;5138523;27;919;-60
2024/01/07 05:20:49;;;;;;;;;;;;;;;7.75;100.00;93371.06;5138523;27;984;-61
2024/01/07 05:23:24;;;;;;;;;;;;;;;7.80;100.00;93381.97;5138089;27;1997;-61
2024/01/07 05:26:00;;;;;;;;;;;;;;;7.84;100.00;93375.28;5138078;27;1035;-61
2024/01/07 05:28:36;;;;;;;;;;;;;;;7.74;100.00;93377.38;5138280;27;947;-61
2024/01/07 05:31:16;;;;;;;;;;;;;;;7.75;100.00;93376.38;5138256;27;946;-60
2024/01/07 05:33:49;;;;;;;;;;;;;;;7.60;100.00;93374.56;5137822;27;1590;-60
2024/01/07 05:36:21;;;;;;;;;;;;;;;7.61;100.00;93378.91;5138053;27;1500;-60
2024/01/07 05:38:56;;;;;;;;;;;;;;;7.77;100.00;93377.03;5138182;27;941;-60
2024/01/07 05:41:30;;;;;;;;;;;;;;;7.77;100.00;93377.03;5137982;27;931;-60
2024/01/07 05:44:06;;;;;;;;;;;;;;;7.57;100.00;93374.97;5137590;27;2000;-59
2024/01/07 05:46:41;;;;;;;;;;;;;;;7.60;100.00;93373.75;5137814;27;926;-60
2024/01/07 05:49:15;;;;;;;;;;;;;;;7.73;100.00;93376.56;5137651;27;948;-60
2024/01/07 05:51:49;;;;;;;;;;;;;;;7.84;100.00;93390.41;5137632;27;1490;-59
2024/01/07 05:54:23;;;;;;;;;;;;;;;7.80;100.00;93390.78;5137617;27;930;-59
2024/01/07 05:56:57;;;;;;;;;;;;;;;7.92;100.00;93391.09;5137320;27;1572;-60
2024/01/07 05:59:31;;;;;;;;;;;;;;;7.78;100.00;93389.31;5137624;27;892;-60
2024/01/07 06:02:06;;;;;;;;;;;;;;;7.61;100.00;93384.22;5137919;27;1019;-60
2024/01/07 06:04:40;;;;;;;;;;;;;;;7.71;100.00;93399.06;5137295;27;1913;-55
2024/01/07 06:07:14;;;;;;;;;;;;;;;7.55;100.00;93392.09;5137061;27;987;-58
2024/01/07 06:09:49;;;;;;;;;;;;;;;7.45;100.00;93365.78;5137273;27;920;-59
2024/01/07 06:12:23;;;;;;;;;;;;;;;7.47;100.00;93401.00;5137388;27;989;-59
2024/01/07 06:14:55;;;;;;;;;;;;;;;7.60;100.00;93405.66;5136941;27;1411;-59
2024/01/07 06:17:27;;;;;;;;;;;;;;;7.70;100.00;93414.19;5136831;27;2252;-59
2024/01/07 06:19:59;;;;;;;;;;;;;;;7.69;100.00;93414.38;5137216;27;1393;-59
2024/01/07 06:22:31;;;;;;;;;;;;;;;7.71;100.00;93425.66;5137062;27;1372;-60
2024/01/07 06:25:06;;;;;;;;;;;;;;;7.76;100.00;93417.97;5137132;27;1905;-61
2024/01/07 06:27:41;;;;;;;;;;;;;;;7.58;100.00;93424.47;5136084;27;1142;-60
2024/01/07 06:30:16;;;;;;;;;;;;;;;7.78;100.00;93431.91;5136764;27;1025;-59
2024/01/07 06:32:52;;;;;;;;;;;;;;;7.85;100.00;93422.13;5136794;27;922;-59
2024/01/07 06:35:26;;;;;;;;;;;;;;;7.51;100.00;93425.38;5136801;27;1566;-60
2024/01/07 06:38:00;;;;;;;;;;;;;;;7.54;100.00;93423.19;5136681;27;996;-59
2024/01/07 06:40:33;;;;;;;;;;;;;;;8.14;100.00;93429.22;5136787;27;1915;-60
2024/01/07 06:43:07;;;;;;;;;;;;;;;8.58;100.00;93435.44;5136329;27;1091;-60
2024/01/07 06:45:41;;;;;;;;;;;;;;;8.44;100.00;93437.13;5136360;27;1913;-61
2024/01/07 06:48:15;;;;;;;;;;;;;;;8.31;100.00;93443.13;5136575;27;951;-60
2024/01/07 06:50:47;;;;;;;;;;;;;;;8.18;100.00;93438.47;5136361;27;1589;-60
2024/01/07 06:53:21;;;;;;;;;;;;;;;8.28;100.00;93448.81;5136344;27;1138;-60
2024/01/07 06:55:56;;;;;;;;;;;;;;;8.40;100.00;93460.66;5136585;27;933;-60
2024/01/07 06:58:32;;;;;;;;;;;;;;;8.08;100.00;93461.09;5136225;27;1003;-60
2024/01/07 07:01:08;;;;;;;;;;;;;;;8.08;100.00;93463.75;5136292;27;1302;-60
2024/01/07 07:03:43;;;;;;;;;;;;;;;8.56;100.00;93464.09;5136109;27;1906;-61
2024/01/07 07:06:17;;;;;;;;;;;;;;;9.37;98.42;93461.91;5136037;27;1031;-61
2024/01/07 07:08:52;;;;;;;;;;;;;;;9.78;96.60;93449.59;5136285;27;1011;-60
2024/01/07 07:11:26;;;;;;;;;;;;;;;12.83;81.60;93454.19;5135921;27;989;-61
2024/01/07 07:14:00;;;;;;;;;;;;;;;14.27;73.53;93469.47;5136081;27;929;-61
2024/01/07 07:16:33;;;;;;;;;;;;;;;13.92;75.40;93459.28;5136038;27;1521;-61
2024/01/07 07:19:08;;;;;;;;;;;;;;;13.55;79.00;93461.94;5135789;27;944;-61
2024/01/07 07:21:43;;;;;;;;;;;;;;;14.39;74.87;93462.25;5135850;27;1143;-61
2024/01/07 07:24:17;;;;;;;;;;;;;;;14.90;72.37;93452.94;5135582;27;1914;-59
2024/01/07 07:26:51;;;;;;;;;;;;;;;16.48;66.61;93454.97;5136023;27;929;-59
2024/01/07 07:29:26;;;;;;;;;;;;;;;17.48;61.79;93462.78;5135626;27;988;-59
2024/01/07 07:32:00;;;;;;;;;;;;;;;19.64;55.46;93469.06;5135872;27;1019;-59
2024/01/07 07:34:34;;;;;;;;;;;;;;;20.67;51.57;93473.31;5135505;27;944;-59
2024/01/07 07:37:07;;;;;;;;;;;;;;;20.93;48.01;93476.16;5135730;27;1620;-59
2024/01/07 07:39:39;;;;;;;;;;;;;;;21.71;47.55;93477.97;5135493;27;1011;-60
2024/01/07 07:42:12;;;;;;;;;;;;;;;22.42;44.85;93477.13;5135513;27;1103;-61
2024/01/07 07:44:43;;;;;;;;;;;;;;;23.00;44.19;93493.03;5135154;27;1996;-60
2024/01/07 07:47:18;;;;;;;;;;;;;;;22.74;44.31;93484.94;5135442;27;1075;-60
2024/01/07 07:49:51;;;;;;;;;;;;;;;20.46;48.89;93465.03;5135580;27;1258;-60
2024/01/07 07:52:25;;;;;;;;;;;;;;;18.32;58.24;93432.94;5135069;27;1153;-59
2024/01/07 07:55:00;;;;;;;;;;;;;;;16.69;62.00;93412.22;5135310;27;940;-61
2024/01/07 07:57:32;;;;;;;;;;;;;;;14.83;68.59;93403.78;5135322;27;1534;-61
2024/01/07 08:00:05;;;;;;;;;;;;;;;13.40;73.27;93411.25;5117964;27;1435;-61
2024/01/07 08:02:37;;;;;;;;;;;;;;;12.61;77.58;93414.31;5134858;27;1559;-61
2024/01/07 08:05:10;;;;;;;;;;;;;;;12.23;78.82;93408.94;5134962;27;1913;-60
2024/01/07 08:07:44;;;;;;;;;;;;;;;11.91;80.51;93419.59;5135145;27;1479;-61
2024/01/07 08:10:16;;;;;;;;;;;;;;;11.80;81.76;93417.53;5135097;27;1491;-61
2024/01/07 08:12:49;;;;;;;;;;;;;;;11.87;83.32;93418.34;5135158;27;1540;-60
2024/01/07 08:15:21;;;;;;;;;;;;;;;12.05;81.94;93407.00;5134875;27;1570;-61
2024/01/07 08:17:53;;;;;;;;;;;;;;;12.07;78.81;93410.28;5135099;27;974;-60
2024/01/07 08:20:25;;;;;;;;;;;;;;;12.07;79.00;93405.72;5134898;27;1618;-62
2024/01/07 08:22:57;;;;;;;;;;;;;;;12.33;77.69;93405.81;5134899;27;1459;-61
2024/01/07 08:25:32;;;;;;;;;;;;;;;12.44;75.83;93413.16;5134371;27;1917;-62
2024/01/07 08:28:03;;;;;;;;;;;;;;;12.28;74.43;93411.81;5134729;27;1495;-61
2024/01/07 08:30:36;;;;;;;;;;;;;;;12.40;74.43;93403.91;5134825;27;1604;-61
2024/01/07 08:33:10;;;;;;;;;;;;;;;12.45;73.06;93409.47;5134659;27;1565;-62
2024/01/07 08:35:41;;;;;;;;;;;;;;;12.54;72.21;93412.69;5134737;27;1451;-61
2024/01/07 08:38:14;;;;;;;;;;;;;;;12.47;70.62;93416.25;5134587;27;1537;-62
2024/01/07 08:40:49;;;;;;;;;;;;;;;12.58;72.81;93408.56;5134766;27;1000;-61
2024/01/07 08:43:24;;;;;;;;;;;;;;;12.42;70.78;93412.56;5134277;27;1213;-62
2024/01/07 08:45:57;;;;;;;;;;;;;;;12.25;69.56;93413.06;5134527;27;1417;-62
2024/01/07 08:48:30;;;;;;;;;;;;;;;12.34;72.95;93396.75;5134595;27;1424;-62
2024/01/07 08:51:04;;;;;;;;;;;;;;;12.40;73.33;93393.19;5133938;27;1436;-61
2024/01/07 08:53:37;;;;;;;;;;;;;;;12.26;73.62;93405.84;5134402;27;1483;-61
2024/01/07 08:56:12;;;;;;;;;;;;;;;12.22;72.55;93397.44;5134275;27;1027;-62
2024/01/07 08:58:44;;;;;;;;;;;;;;;11.96;72.58;93400.22;5134281;28;922;-64
2024/01/07 09:01:17;;;;;;;;;;;;;;;12.04;74.70;93400.78;5134386;28;1471;-64
2024/01/07 09:03:49;;;;;;;;;;;;;;;12.18;73.05;93404.25;5134252;28;1998;-63
2024/01/07 09:06:23;;;;;;;;;;;;;;;12.29;71.63;93403.56;5134253;28;1448;-63
2024/01/07 09:08:57;;;;;;;;;;;;;;;12.19;71.51;93400.53;5134245;28;1704;-63
2024/01/07 09:11:30;;;;;;;;;;;;;;;12.21;72.47;93398.44;5134231;28;1444;-62
2024/01/07 09:14:03;;;;;;;;;;;;;;;12.35;72.08;93398.38;5134160;28;1571;-61
2024/01/07 09:16:36;;;;;;;;;;;;;;;12.67;70.64;93397.38;5134525;28;1610;-61
2024/01/07 09:19:09;;;;;;;;;;;;;;;13.31;69.39;93394.59;5134162;28;1307;-61
2024/01/07 09:21:41;;;;;;;;;;;;;;;13.25;66.64;93393.59;5134249;28;1480;-61
2024/01/07 09:24:14;;;;;;;;;;;;;;;13.52;68.40;93396.06;5133994;28;1913;-60
2024/01/07 09:26:46;;;;;;;;;;;;;;;13.42;66.20;93398.44;5134262;28;1625;-61
2024/01/07 09:29:20;;;;;;;;;;;;;;;13.40;66.94;93395.97;5133986;28;968;-60
2024/01/07 09:31:52;;;;;;;;;;;;;;;13.44;69.23;93389.13;5134106;28;1554;-62
2024/01/07 09:34:25;;;;;;;;;;;;;;;13.50;67.06;93406.19;5133998;28;1533;-60
2024/01/07 09:36:57;;;;;;;;;;;;;;;13.55;65.99;93395.63;5134070;28;1525;-60
2024/01/07 09:39:29;;;;;;;;;;;;;;;13.27;66.98;93388.00;5133674;28;1545;-61
2024/01/07 09:42:02;;;;;;;;;;;;;;;13.07;68.71;93386.34;5133871;28;1400;-61
2024/01/07 09:44:37;;;;;;;;;;;;;;;13.15;70.67;93373.69;5134031;28;1972;-59
2024/01/07 09:47:10;;;;;;;;;;;;;;;13.36;67.63;93378.66;5116669;28;1450;-60
2024/01/07 09:49:42;;;;;;;;;;;;;;;13.53;67.80;93372.75;5133985;28;1611;-60
2024/01/07 09:52:14;;;;;;;;;;;;;;;14.14;65.42;93379.06;5133493;28;1635;-59
2024/01/07 09:54:50;;;;;;;;;;;;;;;14.02;64.30;93362.88;5133906;28;2256;-59
2024/01/07 09:57:25;;;;;;;;;;;;;;;13.31;67.62;93356.22;5133881;28;1445;-59
2024/01/07 09:59:56;;;;;;;;;;;;;;;13.19;69.88;93356.09;5133874;28;1495;-59
2024/01/07 10:02:30;;;;;;;;;;;;;;;13.10;69.54;93358.22;5133759;27;1670;-60
2024/01/07 10:05:04;;;;;;;;;;;;;;;13.43;67.17;93360.66;5137005;27;1926;-60
2024/01/07 10:07:37;;;;;;;;;;;;;;;13.65;66.78;93358.31;5124472;27;2441;-61
2024/01/07 10:10:15;;;;;;;;;;;;;;;13.82;65.56;93345.13;5115693;28;923;-61
2024/01/07 10:12:47;;;;;;;;;;;;;;;14.08;65.09;93336.97;5116889;28;1620;-60
2024/01/07 10:15:20;;;;;;;;;;;;;;;14.16;63.70;93331.28;5116499;28;1562;-60
2024/01/07 10:17:55;;;;;;;;;;;;;;;14.18;63.76;93318.44;5115562;28;957;-61
2024/01/07 10:20:28;;;;;;;;;;;;;;;14.21;63.72;93326.84;5116653;28;1595;-61
2024/01/07 10:23:02;;;;;;;;;;;;;;;14.19;63.87;93322.72;5116864;28;1515;-60
2024/01/07 10:25:35;;;;;;;;;;;;;;;13.80;65.61;93319.53;5116218;28;1996;-60
2024/01/07 10:28:10;;;;;;;;;;;;;;;13.65;64.69;93318.03;5116723;28;933;-60
2024/01/07 10:30:48;;;;;;;;;;;;;;;13.37;65.77;93310.50;5116544;28;1610;-60
2024/01/07 10:33:22;;;;;;;;;;;;;;;13.64;64.83;93310.25;5115952;28;1656;-61
2024/01/07 10:36:00;;;;;;;;;;;;;;;13.31;65.81;93300.69;5116095;28;1519;-60
2024/01/07 10:38:35;;;;;;;;;;;;;;;13.40;65.62;93304.72;5116369;28;1562;-60
2024/01/07 10:41:09;;;;;;;;;;;;;;;13.55;65.59;93290.09;5116017;28;1630;-60
2024/01/07 10:43:46;;;;;;;;;;;;;;;13.61;66.52;93283.81;5115710;28;2000;-60
2024/01/07 10:46:19;;;;;;;;;;;;;;;13.48;64.24;93279.44;5099122;28;1514;-60
2024/01/07 10:48:56;;;;;;;;;;;;;;;12.84;66.32;93279.66;5116166;28;1014;-60
2024/01/07 10:51:33;;;;;;;;;;;;;;;12.72;68.65;93276.06;5116252;28;941;-60
2024/01/07 10:54:07;;;;;;;;;;;;;;;12.70;68.36;93262.03;5136663;27;975;-61
2024/01/07 10:56:45;;;;;;;;;;;;;;;12.72;69.99;93269.88;5136610;27;1540;-61
2024/01/07 10:59:19;;;;;;;;;;;;;;;12.62;68.26;93265.00;5136673;27;1440;-60
2024/01/07 11:01:53;;;;;;;;;;;;;;;12.48;68.08;93256.25;5136538;27;1525;-61
2024/01/07 11:04:36;;;;;;;;;;;;;;;12.32;68.93;93251.44;5136157;27;1975;-60
2024/01/07 11:07:16;;;;;;;;;;;;;;;12.43;68.78;93250.75;5136329;27;1499;-60
2024/01/07 11:10:08;;;;;;;;;;;;;;;12.53;70.97;93245.69;5136309;27;1401;-61
2024/01/07 11:12:40;;;;;;;;;;;;;;;12.64;68.74;93254.91;5136027;27;1715;-61
2024/01/07 11:15:33;;;;;;;;;;;;;;;12.59;67.37;93260.91;5135659;27;1370;-60
2024/01/07 11:18:05;;;;;;;;;;;;;;;12.70;69.07;93256.69;5135749;27;1515;-58
2024/01/07 11:20:38;;;;;;;;;;;;;;;12.59;67.47;93260.91;5136059;27;1466;-59
2024/01/07 11:23:30;;;;;;;;;;;;;;;12.58;69.09;93269.19;5136100;27;956;-56
2024/01/07 11:26:05;;;;;;;;;;;;;;;12.59;68.73;93266.25;5136082;27;924;-61
2024/01/07 11:28:43;;;;;;;;;;;;;;;12.71;68.51;93266.38;5136038;27;904;-59
2024/01/07 11:31:18;;;;;;;;;;;;;;;12.78;69.41;93264.44;5135432;27;917;-59
2024/01/07 11:33:54;;;;;;;;;;;;;;;12.92;69.45;93269.69;5135551;27;1468;-60
2024/01/07 11:36:29;;;;;;;;;;;;;;;12.93;68.78;93266.78;5135713;27;1444;-60
2024/01/07 11:39:05;;;;;;;;;;;;;;;12.82;68.83;93271.00;5135547;27;1382;-60
2024/01/07 11:41:39;;;;;;;;;;;;;;;12.87;71.07;93254.25;5135931;27;1364;-59
2024/01/07 11:44:14;;;;;;;;;;;;;;;12.91;70.65;93257.31;5135034;27;1922;-60
2024/01/07 11:46:49;;;;;;;;;;;;;;;12.88;70.07;93261.25;5135699;27;991;-60
2024/01/07 11:49:23;;;;;;;;;;;;;;;12.76;70.07;93254.97;5135563;27;1672;-59
2024/01/07 11:51:57;;;;;;;;;;;;;;;12.84;69.25;93258.22;5135559;27;1149;-59
2024/01/07 11:54:31;;;;;;;;;;;;;;;12.84;70.13;93262.72;5135253;27;992;-60
2024/01/07 11:57:06;;;;;;;;;;;;;;;12.69;70.41;93255.88;5135169;27;1408;-60
2024/01/07 11:59:40;;;;;;;;;;;;;;;12.52;70.36;93257.47;5135393;27;937;-59
2024/01/07 12:02:17;;;;;;;;;;;;;;;12.52;70.93;93254.78;5135090;27;984;-60
2024/01/07 12:04:51;;;;;;;;;;;;;;;12.56;70.70;93261.34;5135018;27;1990;-60
2024/01/07 12:07:25;;;;;;;;;;;;;;;12.48;70.93;93258.94;5134990;27;937;-58
2024/01/07 12:10:00;;;;;;;;;;;;;;;12.37;71.61;93260.47;5135277;27;991;-58
2024/01/07 12:12:35;;;;;;;;;;;;;;;12.39;72.32;93255.72;5135084;27;985;-59
2024/01/07 12:15:11;;;;;;;;;;;;;;;12.43;71.60;93259.59;5134928;27;936;-60
2024/01/07 12:17:47;;;;;;;;;;;;;;;12.37;72.55;93262.31;5135136;27;996;-60
2024/01/07 12:20:19;;;;;;;;;;;;;;;12.37;72.17;93257.78;5134958;27;1737;-60
2024/01/07 12:23:05;;;;;;;;;;;;;;;12.25;72.23;93248.81;5134984;27;941;-60
2024/01/07 12:25:37;;;;;;;;;;;;;;;12.37;73.60;93263.16;5133994;27;2015;-60
2024/01/07 12:28:12;;;;;;;;;;;;;;;12.23;72.06;93259.72;5134700;27;921;-59
2024/01/07 12:30:44;;;;;;;;;;;;;;;12.21;72.29;93251.09;5134912;27;929;-60
2024/01/07 12:33:21;;;;;;;;;;;;;;;12.25;72.33;93254.16;5134732;27;1342;-60
2024/01/07 12:35:53;;;;;;;;;;;;;;;12.20;72.77;93252.16;5134791;27;1412;-59
2024/01/07 12:38:27;;;;;;;;;;;;;;;12.20;73.98;93246.78;5134594;27;937;-60
2024/01/07 12:41:00;;;;;;;;;;;;;;;12.28;73.13;93254.56;5134068;27;1537;-60
2024/01/07 12:43:35;;;;;;;;;;;;;;;12.36;72.86;93255.31;5134163;27;1122;-60
2024/01/07 12:46:08;;;;;;;;;;;;;;;12.46;72.77;93261.00;5134272;27;1729;-60
2024/01/07 12:48:42;;;;;;;;;;;;;;;12.53;72.91;93256.41;5134340;27;1148;-60
2024/01/07 12:51:16;;;;;;;;;;;;;;;12.61;72.70;93266.03;5134413;27;1516;-59
2024/01/07 12:53:48;;;;;;;;;;;;;;;12.44;72.12;93263.09;5134178;27;1358;-59
2024/01/07 12:56:22;;;;;;;;;;;;;;;12.41;72.82;93260.88;5117226;28;1258;-59
2024/01/07 12:58:54;;;;;;;;;;;;;;;12.54;73.93;93257.22;5134303;28;1243;-60
2024/01/07 13:01:29;;;;;;;;;;;;;;;12.50;72.60;93264.88;5134395;28;1028;-60
2024/01/07 13:04:03;;;;;;;;;;;;;;;12.46;73.16;93267.22;5134335;28;1898;-60
2024/01/07 13:06:37;;;;;;;;;;;;;;;12.46;73.22;93269.88;5134459;28;920;-59
2024/01/07 13:09:09;;;;;;;;;;;;;;;12.46;73.82;93261.00;5134244;28;1618;-59
2024/01/07 13:11:43;;;;;;;;;;;;;;;12.47;74.45;93260.78;5134017;28;1561;-60
2024/01/07 13:14:15;;;;;;;;;;;;;;;12.64;76.08;93268.28;5134167;28;1453;-60
2024/01/07 13:16:45;;;;;;;;;;;;;;;12.55;74.95;93272.28;5134322;28;1521;-59
2024/01/07 13:19:17;;;;;;;;;;;;;;;12.25;75.05;93263.00;5134293;28;1487;-59
2024/01/07 13:21:49;;;;;;;;;;;;;;;12.13;76.54;93264.75;5134293;28;1525;-59
2024/01/07 13:24:22;;;;;;;;;;;;;;;12.12;77.73;93268.47;5133968;28;1914;-59
2024/01/07 13:26:56;;;;;;;;;;;;;;;12.15;79.54;93269.91;5134055;28;1360;-59
2024/01/07 13:29:28;;;;;;;;;;;;;;;12.13;78.65;93263.94;5134027;28;2102;-59
2024/01/07 13:35:25;;;;;;;;;;;;;;;11.99;80.67;93264.03;5133923;28;671;-59
2024/01/07 13:37:59;;;;;;;;;;;;;;;11.91;80.07;93265.13;5136309;27;929;-59
2024/01/07 13:40:32;;;;;;;;;;;;;;;11.90;80.61;93274.19;5137546;27;1383;-59